Dakin Peak, Santa Catalina Island Weather observations

Data are for 10 minute period ending at time listed.
 Day   Time   Solar   Ave.   Ave.  Ave.  Vector    Max.   Stn.    Total
  of    of     Rad.   Air    Rel.  Wind   Wind     Wind   Baro.  Precip.
Year   Day            Temp.  Hum.  Speed  Dir.     Gust   Pres.         
2016   (PST)   W/m2    F      %     mph   deg.      mph    mb.     in.  
------------------------------------------------------------------------
 269    2:50    0.0    80   14.0     4      2.3     5.4    999.0   0.00  
 269    3:00    0.0    80   14.4     6    327.5     6.6    999.0   0.00  
 269    3:10    0.0    80   14.6     6    322.5     6.6    999.0   0.00  
 269    3:20    0.0    80   14.6     6    324.9     7.2    999.0   0.00  
 269    3:30    0.0    79   15.1     5    349.5     8.4    999.0   0.00  
 269    3:40    0.0    78   16.0     6    348.8     9.6    999.0   0.00  
 269    3:50    0.0    78   16.5     7    322.2    10.2    999.0   0.00  
 269    4:00    0.0    77   16.9     7    331.1     9.6    999.0   0.00  
 269    4:10    0.0    79   15.0     6    329.8     9.0    999.0   0.00  
 269    4:20    0.0    78   15.7     4    299.0     6.0    999.0   0.00  
 269    4:30    0.0    80   14.2     3    343.6     6.0    999.0   0.00  
 269    4:40    0.0    80   13.4     2      2.6     3.6    999.0   0.00  
 269    4:50    0.0    81   13.8     4     51.4    13.1    999.0   0.00  
 269    5:00    0.0    81   13.9     3     36.1     4.8    999.0   0.00  
 269    5:10    0.0    81   13.8     2     70.9     4.2    999.0   0.00  
 269    5:20    0.0    82   13.9     5     75.3     8.4    999.0   0.00  
 269    5:30    0.0    83   13.9     3     66.6     5.4    999.0   0.00  
 269    5:40    1.0    82   14.0     3     23.5     7.2    999.0   0.00  
 269    5:50    4.0    80   15.6     3     64.4     4.8    999.0   0.00  
 269    6:00   13.0    80   13.9     4    355.2     6.6    999.0   0.00  
 269    6:10   31.0    81   13.9     7    335.5     9.6    999.0   0.00  
 269    6:20   55.0    80   14.8     6      4.5     9.0    999.0   0.00  
 269    6:30   87.0    81   14.8     6     43.5     8.4    999.0   0.00  
 269    6:40  114.0    82   15.0     4     41.8     6.0    999.0   0.00  
 269    6:50  140.0    81   15.0     4     18.3     6.6    999.0   0.00  
 269    7:00  166.0    82   14.7     3     21.5     6.6    999.0   0.00  
 269    7:10  194.0    82   14.4     4     21.0     5.4    999.0   0.00  
 269    7:20  222.0    83   14.0     4     62.2     7.8    999.0   0.00  
 269    7:30  249.0    85   13.7     4     82.2     6.6    999.0   0.00  
 269    7:40  277.0    86   15.6     6     92.6     9.6    999.0   0.00  
 269    7:50  303.0    82   16.9     4     33.0     7.8    999.0   0.00  
 269    8:00  330.0    81   15.8     4     18.0     6.0    999.0   0.00  
 269    8:10  356.0    81   13.8     4     16.9     6.0    999.0   0.00  
 269    8:20  381.0    83   13.1     3     22.3     5.4    999.0   0.00  
 269    8:30  405.0    83   13.4     3     29.1     6.6    999.0   0.00  
 269    8:40  430.0    84   13.3     4     60.7     7.8    999.0   0.00  
 269    8:50  453.0    87   13.4     5     86.8     7.8    999.0   0.00  
 269    9:00  475.0    88   13.2     7    102.4    11.3    999.0   0.00  
 269    9:10  496.0    88   13.5     7    109.8    13.1    999.0   0.00  
 269    9:20  515.0    89   12.9     8    103.6    12.5    999.0   0.00  
 269    9:30  534.0    88   13.5     8     93.2    13.7    999.0   0.00  
 269    9:40  553.0    89   12.9     7     76.7    11.9    999.0   0.00  
 269    9:50  570.0    89   12.9     6     74.6     9.6    999.0   0.00  
 269   10:00  586.0    89   13.2     7     83.4    11.9    999.0   0.00  
 269   10:10  601.0    89   13.5     9    102.3    13.1    999.0   0.00  
 269   10:20  614.0    89   13.6     6     84.4    10.2    999.0   0.00  
 269   10:30  627.0    90   12.7     9     92.4    16.1    999.0   0.00  
 269   10:40  636.0    90   14.2     8     95.4    11.9    999.0   0.00  
 269   10:50  645.0    91   13.1     9     95.0    12.5    999.0   0.00  
 269   11:00  653.0    90   11.9     9     84.4    16.1    999.0   0.00  
 269   11:10  660.0    90   11.7     9     75.0    13.7    999.0   0.00  
 269   11:20  665.0    91   12.9     9     92.3    14.9    999.0   0.00  
 269   11:30  669.0    91   12.5     8     81.6    11.9    999.0   0.00  
 269   11:40  671.0    91   11.9     8     69.8    11.3    999.0   0.00  
 269   11:50  671.0    91   11.9     8     74.2    10.8    999.0   0.00  
 269   12:00  670.0    90   13.2     8     88.8    12.5    999.0   0.00  
 269   12:10  667.0    90   13.1     8     81.0    12.5    999.0   0.00  
 269   12:20  663.0    90   12.2     9     83.2    15.5    999.0   0.00  
 269   12:30  657.0    91   12.4    10    104.5    14.9    999.0   0.00  
 269   12:40  651.0    90   13.1     9     91.7    15.5    999.0   0.00  
 269   12:50  643.0    90   12.9     8     89.4    11.3    999.0   0.00  
 269   13:00  635.0    90   12.2     8     85.8    13.7    999.0   0.00  
 269   13:10  625.0    91   11.7     7     78.7    13.1    999.0   0.00  
 269   13:20  614.0    90   11.1     8     62.7    13.7    999.0   0.00  
 269   13:30  600.0    91   10.5     7     56.5    13.7    999.0   0.00  
 269   13:40  586.0    90    9.7     7      6.6    11.3    999.0   0.00  
 269   13:50  568.0    90    9.2     7    350.5    10.8    999.0   0.00  
 269   14:00  550.0    90    9.2     6    330.1     9.0    999.0   0.00  
 269   14:10  531.0    90    9.3     7    327.9    11.3    999.0   0.00  
 269   14:20  510.0    91    8.4     6    342.8    10.2    999.0   0.00  
 269   14:30  490.0    90    9.6     6    359.4    10.2    999.0   0.00  
 269   14:40  468.0    90    9.8     6    341.4     9.0    999.0   0.00  
 269   14:50  445.0    90    9.6     6    332.8     8.4    999.0   0.00  
 269   15:00  424.0    90    9.6     7    317.7    11.9    999.0   0.00  
 269   15:10  399.0    91    8.6    10    301.4    14.9    999.0   0.00  
 269   15:20  372.0    91    8.2    10    291.8    14.3    999.0   0.00  
 269   15:30  348.0    91   10.9    11    273.2    19.1    999.0   0.00  
 269   15:40  323.0    90   11.8    14    261.0    18.5    999.0   0.00  
 269   15:50  296.0    88   10.9    17    259.5    23.3    999.0   0.00  
 269   16:00  269.0    88   10.8    18    260.6    26.2    999.0   0.00  
 269   16:10  241.0    88   11.4    16    263.7    21.5    999.0   0.00  
 269   16:20  212.0    88   11.8    14    261.8    17.9    999.0   0.00  
 269   16:30  185.0    87   11.5    15    261.5    19.7    999.0   0.00  
 269   16:40  158.0    87   11.5    15    261.9    19.1    999.0   0.00  
 269   16:50  130.0    86   12.0    18    260.4    26.2    999.0   0.00  
 269   17:00  103.0    85   13.6    19    259.2    34.6    999.0   0.00  
 269   17:10   77.0    83   14.8    20    260.3    42.9    999.0   0.00  
 269   17:20   49.0    82   15.0    30    261.7    48.9    999.0   0.00  
 269   17:30   28.0    81   15.9    37    261.0    52.5    999.0   0.00  
 269   17:40   13.0    81   15.2    37    262.1    53.6    999.0   0.00  
 269   17:50    4.0    81   14.8    36    263.9    55.4    999.0   0.00  
 269   18:00    2.0    80   15.1    29    260.0    53.0    999.0   0.00  
 269   18:10    0.0    81   14.8    22    260.2    45.9    999.0   0.00  
 269   18:20    0.0    80   15.0    23    263.0    46.5    999.0   0.00  
 269   18:30    0.0    80   15.8    22    263.6    48.9    999.0   0.00  
 269   18:40    0.0    79   16.4    23    262.9    49.5    999.0   0.00  
 269   18:50    0.0    79   16.5    24    263.7    47.1    999.0   0.00  
 269   19:00    0.0    79   16.2    14    264.8    20.9    999.0   0.00  
 269   19:10    0.0    79   16.0    15    265.0    31.0    999.0   0.00  
 269   19:20    0.0    79   16.0    13    266.9    32.8    999.0   0.00  
 269   19:30    0.0    80   14.6    12    277.2    14.9    999.0   0.00  
 269   19:40    0.0    81   13.5    12    290.9    14.9    999.0   0.00  
 269   19:50    0.0    85   10.7    13    329.6    31.0    999.0   0.00  
 269   20:00    0.0    85   10.4    12    325.8    28.6    999.0   0.00  
 269   20:10    0.0    85   10.7    11    335.6    15.5    999.0   0.00  
 269   20:20    0.0    85   10.8    11    353.9    17.9    999.0   0.00  
 269   20:30    0.0    85   11.1    12     16.0    23.9    999.0   0.00  
 269   20:40    0.0    85   11.5    13     37.3    21.5    999.0   0.00  
 269   20:50    0.0    84   11.9    14     57.6    32.8    999.0   0.00  
 269   21:00    0.0    84   12.5    13     62.6    20.3    999.0   0.00  
 269   21:10    0.0    83   13.7    12     60.6    25.0    999.0   0.00  
 269   21:20    0.0    83   13.7    15     63.7    23.9    999.0   0.00  
 269   21:30    0.0    83   14.4    13     70.3    19.7    999.0   0.00  
 269   21:40    0.0    83   14.6    13     81.9    20.9    999.0   0.00  
 269   21:50    0.0    82   15.8    10     97.3    15.5    999.0   0.00  
 269   22:00    0.0    82   16.4    11     99.2    16.1    999.0   0.00  
 269   22:10    0.0    82   17.0    14    104.0    20.3    999.0   0.00  
 269   22:20    0.0    82   16.6    15    103.8    24.5    999.0   0.00  
 269   22:30    0.0    81   17.7    12     97.9    19.1    999.0   0.00  
 269   22:40    0.0    80   19.0    13    100.6    16.7    999.0   0.00  
 269   22:50    0.0    80   20.1    12     96.8    24.5    999.0   0.00  
 269   23:00    0.0    80   19.7    12    105.6    23.9    999.0   0.00  
 269   23:10    0.0    79   19.8    11    120.6    15.5    999.0   0.00  
 269   23:20    0.0    80   17.8    11    123.4    17.9    999.0   0.00  
 269   23:30    0.0    81   17.0    10    127.7    14.3    999.0   0.00  
 269   23:40    0.0    81   16.4    10    126.4    14.3    999.0   0.00  
 269   23:50    0.0    81   15.8     9    126.3    13.1    999.0   0.00  
 270    0:00    0.0    81   15.3     8    126.3    11.3    999.0   0.00  
 270    0:10    0.0    82   14.7     9    121.3    11.9    999.0   0.00  
 270    0:20    0.0    81   14.8     7    125.6    10.8    999.0   0.00  
 270    0:30    0.0    80   15.2     6    129.9    11.9    999.0   0.00  
 270    0:40    0.0    80   16.3     5    135.1     9.0    999.0   0.00  
 270    0:50    0.0    80   16.6     6    126.0     9.6    999.0   0.00  
 270    1:00    0.0    80   16.2     8    118.2    11.3    999.0   0.00  
 270    1:10    0.0    79   16.8     8    123.7    11.9    999.0   0.00  
 270    1:20    0.0    79   17.1     8    112.2     9.6    999.0   0.00  
 270    1:30    0.0    78   18.4     6    114.7     9.0    999.0   0.00  
 270    1:40    0.0    78   18.1     7    111.3    10.2    999.0   0.00  
 270    1:50    0.0    80   15.9     8    111.9    11.9    999.0   0.00  
 270    2:00    0.0    80   15.3     6    119.6    10.2    999.0   0.00  
 270    2:10    0.0    80   15.0     8    109.5    11.3    999.0   0.00  
 270    2:20    0.0    80   15.0     8    107.6    10.2    999.0   0.00  
 270    2:30    0.0    80   15.0     6    113.1     8.4    999.0   0.00  
 270    2:40    0.0    80   15.3     6    109.2     8.4    999.0   0.00  

Return to Dakin Peak graphs page.


Western Regional Climate Center,wrcc@dri.edu